createdAt,value
2022-09-12T00:02:21.811Z,96.65
2022-09-12T00:04:49.404Z,96.64
2022-09-12T00:07:17.096Z,96.43
2022-09-12T00:09:44.564Z,95.93
2022-09-12T00:12:12.037Z,95.84
2022-09-12T00:14:39.460Z,95.90
2022-09-12T00:17:06.865Z,95.92
2022-09-12T00:19:35.607Z,96.27
2022-09-12T00:22:03.122Z,96.34
2022-09-12T00:24:30.527Z,96.15
2022-09-12T00:26:57.952Z,96.29
2022-09-12T00:29:25.370Z,96.13
2022-09-12T00:31:52.888Z,96.25
2022-09-12T00:34:20.323Z,96.12
2022-09-12T00:36:49.080Z,95.77
2022-09-12T00:39:17.974Z,95.95
2022-09-12T00:41:45.638Z,96.15
2022-09-12T00:44:45.606Z,96.72
2022-09-12T00:47:18.531Z,96.79
2022-09-12T00:49:50.780Z,96.66
2022-09-12T00:52:25.336Z,97.05
2022-09-12T00:54:58.360Z,96.99
2022-09-12T00:57:30.758Z,97.03
2022-09-12T01:00:04.432Z,96.82
2022-09-12T01:02:33.012Z,96.79
2022-09-12T01:05:01.316Z,96.87
2022-09-12T01:07:30.367Z,96.67
2022-09-12T01:09:57.988Z,96.83
2022-09-12T01:12:25.566Z,97.13
2022-09-12T01:14:53.003Z,97.49
2022-09-12T01:17:20.477Z,97.32
2022-09-12T01:20:39.202Z,97.35
2022-09-12T01:23:44.150Z,96.97
2022-09-12T01:26:36.487Z,96.82
2022-09-12T01:29:19.064Z,96.66
2022-09-12T01:31:55.056Z,96.24
2022-09-12T01:34:28.067Z,96.33
2022-09-12T01:37:04.739Z,96.00
2022-09-12T01:39:41.292Z,96.05
2022-09-12T01:42:16.356Z,96.01
2022-09-12T01:44:52.541Z,96.05
2022-09-12T01:47:28.640Z,95.98
2022-09-12T01:50:01.548Z,96.00
2022-09-12T01:52:33.301Z,96.13
2022-09-12T01:55:09.805Z,95.83
2022-09-12T01:57:41.983Z,96.05
2022-09-12T02:00:12.627Z,95.88
2022-09-12T02:02:52.868Z,96.22
2022-09-12T02:05:27.496Z,96.46
2022-09-12T02:08:02.086Z,96.45
2022-09-12T02:10:33.872Z,96.52
2022-09-12T02:13:08.093Z,96.42
2022-09-12T02:15:38.994Z,96.98
2022-09-12T02:18:09.414Z,97.00
2022-09-12T02:20:48.851Z,97.58
2022-09-12T02:23:21.703Z,98.37
2022-09-12T02:25:55.471Z,98.03
2022-09-12T02:28:27.308Z,98.11
2022-09-12T02:31:06.374Z,98.10
2022-09-12T02:33:45.642Z,97.67
2022-09-12T02:36:24.414Z,97.79
2022-09-12T02:38:52.123Z,97.72
2022-09-12T02:41:21.627Z,97.63
2022-09-12T02:43:51.340Z,97.36
2022-09-12T02:46:23.183Z,97.51
2022-09-12T02:48:52.430Z,97.48
2022-09-12T02:51:23.513Z,97.98
2022-09-12T02:53:51.514Z,98.10
2022-09-12T02:56:24.564Z,98.12
2022-09-12T02:58:52.933Z,98.19
2022-09-12T03:01:33.893Z,98.17
2022-09-12T03:04:33.050Z,97.94
2022-09-12T03:07:12.864Z,98.14
2022-09-12T03:09:46.396Z,98.03
2022-09-12T03:12:26.735Z,98.26
2022-09-12T03:15:15.620Z,97.47
2022-09-12T03:17:56.324Z,96.65
2022-09-12T03:20:39.854Z,95.56
2022-09-12T03:23:15.608Z,95.44
2022-09-12T03:25:48.540Z,96.03
2022-09-12T03:28:18.327Z,96.47
2022-09-12T03:30:47.359Z,96.89
2022-09-12T03:33:16.232Z,97.48
2022-09-12T03:35:45.207Z,97.09
2022-09-12T03:38:12.657Z,97.34
2022-09-12T03:40:40.760Z,97.24
2022-09-12T03:43:09.882Z,97.64
2022-09-12T03:45:38.225Z,97.81
2022-09-12T03:48:06.784Z,97.80
2022-09-12T03:50:34.785Z,97.93
2022-09-12T03:53:04.366Z,97.94
2022-09-12T03:55:31.956Z,97.83
2022-09-12T03:57:59.388Z,98.23
2022-09-12T04:00:27.178Z,98.42
2022-09-12T04:02:56.322Z,98.31
2022-09-12T04:05:24.529Z,98.54
2022-09-12T04:07:52.494Z,98.37
2022-09-12T04:10:21.319Z,98.26
2022-09-12T04:12:48.743Z,98.37
2022-09-12T04:15:16.340Z,98.33
2022-09-12T04:17:43.775Z,97.64
2022-09-12T04:20:11.198Z,97.68
2022-09-12T04:22:38.627Z,97.16
2022-09-12T04:25:07.109Z,97.14
2022-09-12T04:27:35.908Z,97.39
2022-09-12T04:30:03.363Z,97.21
2022-09-12T04:32:31.722Z,97.43
2022-09-12T04:34:59.163Z,97.37
2022-09-12T04:37:26.567Z,97.54
2022-09-12T04:39:57.633Z,97.57
2022-09-12T04:42:26.349Z,97.62
2022-09-12T04:44:55.088Z,97.95
2022-09-12T04:47:23.037Z,97.84
2022-09-12T04:49:51.028Z,97.55
2022-09-12T04:52:18.444Z,98.13
2022-09-12T04:54:45.831Z,98.26
2022-09-12T04:57:13.423Z,98.24
2022-09-12T04:59:40.909Z,98.41
2022-09-12T05:02:09.710Z,98.23
2022-09-12T05:04:37.131Z,98.37
2022-09-12T05:07:05.697Z,98.78
2022-09-12T05:09:33.141Z,98.83
2022-09-12T05:12:05.188Z,98.89
2022-09-12T05:14:33.747Z,98.80
2022-09-12T05:17:02.071Z,98.40
2022-09-12T05:19:32.160Z,98.00
2022-09-12T05:22:00.146Z,97.98
2022-09-12T05:24:27.655Z,97.81
2022-09-12T05:26:55.139Z,97.63
2022-09-12T05:29:22.551Z,97.75
2022-09-12T05:31:52.011Z,97.73
2022-09-12T05:34:19.874Z,97.70
2022-09-12T05:36:49.043Z,97.72
2022-09-12T05:39:16.735Z,97.55
2022-09-12T05:41:44.159Z,97.36
2022-09-12T05:44:13.953Z,97.21
2022-09-12T05:46:43.277Z,96.97
2022-09-12T05:49:12.960Z,96.85
2022-09-12T05:51:43.724Z,96.34
2022-09-12T05:54:14.963Z,95.13
2022-09-12T05:56:44.338Z,95.15
2022-09-12T05:59:13.807Z,95.14
2022-09-12T06:01:41.742Z,95.26
2022-09-12T06:04:09.456Z,95.69
2022-09-12T06:06:41.570Z,95.76
2022-09-12T06:09:09.406Z,95.84
2022-09-12T06:11:40.697Z,95.51
2022-09-12T06:14:09.798Z,94.98
2022-09-12T06:16:38.116Z,94.77
2022-09-12T06:19:07.908Z,94.84
2022-09-12T06:21:37.751Z,94.73
2022-09-12T06:24:05.472Z,94.59
2022-09-12T06:26:33.162Z,94.41
2022-09-12T06:29:02.888Z,94.23
2022-09-12T06:31:33.025Z,94.10
2022-09-12T06:34:02.149Z,93.48
2022-09-12T06:36:31.642Z,92.84
2022-09-12T06:39:00.722Z,92.56
2022-09-12T06:41:29.130Z,91.42
2022-09-12T06:43:56.996Z,90.80
2022-09-12T06:46:26.304Z,90.12
2022-09-12T06:48:54.304Z,89.57
2022-09-12T06:51:21.937Z,89.81
2022-09-12T06:53:50.337Z,90.11
2022-09-12T06:56:22.805Z,90.06
2022-09-12T06:58:51.749Z,90.39
2022-09-12T07:01:20.954Z,89.26
2022-09-12T07:03:51.757Z,88.32
2022-09-12T07:06:21.520Z,88.10
2022-09-12T07:08:49.447Z,87.82
2022-09-12T07:11:18.828Z,87.36
2022-09-12T07:13:48.133Z,87.58
2022-09-12T07:16:19.674Z,86.16
2022-09-12T07:18:52.891Z,86.55
2022-09-12T07:21:20.624Z,85.68
2022-09-12T07:23:48.657Z,86.04
2022-09-12T07:26:18.743Z,86.00
2022-09-12T07:28:46.141Z,84.38
2022-09-12T07:31:15.442Z,83.37
2022-09-12T07:33:44.257Z,83.64
2022-09-12T07:36:15.179Z,82.49
2022-09-12T07:38:44.268Z,82.01
2022-09-12T07:41:12.887Z,81.23
2022-09-12T07:43:40.917Z,80.79
2022-09-12T07:46:08.818Z,80.33
2022-09-12T07:48:36.315Z,80.57
2022-09-12T07:51:06.475Z,79.33
2022-09-12T07:53:37.241Z,78.17
2022-09-12T07:56:05.419Z,77.03
2022-09-12T07:58:33.694Z,76.47
2022-09-12T08:01:04.844Z,76.35
2022-09-12T08:03:32.577Z,75.40
2022-09-12T08:06:11.005Z,75.29
2022-09-12T08:08:39.828Z,75.17
2022-09-12T08:11:10.003Z,72.70
2022-09-12T08:13:39.621Z,72.68
2022-09-12T08:16:12.121Z,73.08
2022-09-12T08:18:40.277Z,72.88
2022-09-12T08:21:13.426Z,72.38
2022-09-12T08:23:42.384Z,71.59
2022-09-12T08:26:11.681Z,70.54
2022-09-12T08:28:40.941Z,69.35
2022-09-12T08:31:10.199Z,70.25
2022-09-12T08:33:38.030Z,68.78
2022-09-12T08:36:06.432Z,69.23
2022-09-12T08:38:34.593Z,70.74
2022-09-12T08:41:08.787Z,68.41
2022-09-12T08:43:54.537Z,69.46
2022-09-12T08:46:29.982Z,68.44
2022-09-12T08:49:00.805Z,69.44
2022-09-12T08:51:29.307Z,66.75
2022-09-12T08:53:58.221Z,67.00
2022-09-12T08:56:31.776Z,67.10
2022-09-12T08:58:59.284Z,66.69
2022-09-12T09:01:32.795Z,66.06
2022-09-12T09:04:23.638Z,66.49
2022-09-12T09:07:16.719Z,65.15
2022-09-12T09:09:59.526Z,66.43
2022-09-12T09:12:37.639Z,65.81
2022-09-12T09:15:27.716Z,65.05
2022-09-12T09:18:01.739Z,65.07
2022-09-12T09:20:36.453Z,64.14
2022-09-12T09:23:09.523Z,64.52
2022-09-12T09:25:44.421Z,62.63
2022-09-12T09:28:19.078Z,63.26
2022-09-12T09:30:47.487Z,63.18
2022-09-12T09:33:21.407Z,60.94
2022-09-12T09:35:57.590Z,61.79
2022-09-12T09:38:39.904Z,61.20
2022-09-12T09:41:21.763Z,61.01
2022-09-12T09:43:50.628Z,60.21
2022-09-12T09:46:18.344Z,58.21
2022-09-12T09:48:48.915Z,60.07
2022-09-12T09:51:21.771Z,57.10
2022-09-12T09:53:52.968Z,57.61
2022-09-12T09:56:28.846Z,57.69
2022-09-12T09:58:57.832Z,56.42
2022-09-12T10:01:28.527Z,56.19
2022-09-12T10:03:57.159Z,56.07
2022-09-12T10:06:30.859Z,53.73
2022-09-12T10:09:21.589Z,54.94
2022-09-12T10:11:49.645Z,53.75
2022-09-12T10:14:39.415Z,53.55
2022-09-12T10:17:23.903Z,51.04
2022-09-12T10:20:10.675Z,52.59
2022-09-12T10:22:39.443Z,51.21
2022-09-12T10:25:13.305Z,52.73
2022-09-12T10:27:42.824Z,53.27
2022-09-12T10:30:19.913Z,51.48
2022-09-12T10:32:50.684Z,52.66
2022-09-12T10:35:20.848Z,51.20
2022-09-12T10:37:55.307Z,49.82
2022-09-12T10:40:25.997Z,50.08
2022-09-12T10:42:55.415Z,50.67
2022-09-12T10:45:28.901Z,51.76
2022-09-12T10:48:02.096Z,50.33
2022-09-12T10:50:36.145Z,50.26
2022-09-12T10:53:25.691Z,49.29
2022-09-12T10:56:06.000Z,51.18
2022-09-12T10:58:48.064Z,50.92
2022-09-12T11:01:29.042Z,50.21
2022-09-12T11:04:15.587Z,50.26
2022-09-12T11:06:54.668Z,50.46
2022-09-12T11:09:35.699Z,49.71
2022-09-12T11:12:14.240Z,51.13
2022-09-12T11:14:52.358Z,49.18
2022-09-12T11:17:32.242Z,50.01
2022-09-12T11:20:28.342Z,50.18
2022-09-12T11:23:37.884Z,49.71
2022-09-12T11:26:18.927Z,49.60
2022-09-12T11:28:58.469Z,49.70
2022-09-12T11:31:55.167Z,48.95
2022-09-12T11:34:31.867Z,48.30
2022-09-12T11:37:18.085Z,46.89
2022-09-12T11:39:51.315Z,47.34
2022-09-12T11:42:27.392Z,47.83
2022-09-12T11:45:04.030Z,47.30
2022-09-12T11:47:35.239Z,47.62
2022-09-12T11:50:16.429Z,48.77
2022-09-12T11:52:43.834Z,46.77
2022-09-12T11:55:18.058Z,45.84
2022-09-12T11:57:49.317Z,46.20
2022-09-12T12:00:19.463Z,44.91
2022-09-12T12:03:02.110Z,44.10
2022-09-12T12:05:36.955Z,43.43
2022-09-12T12:08:07.743Z,45.29
2022-09-12T12:10:38.544Z,45.28
2022-09-12T12:13:16.653Z,41.32
2022-09-12T12:15:48.100Z,41.27
2022-09-12T12:18:19.642Z,44.63
2022-09-12T12:20:48.479Z,45.64
2022-09-12T12:23:25.446Z,45.55
2022-09-12T12:25:54.919Z,44.82
2022-09-12T12:28:59.708Z,45.05
2022-09-12T12:31:27.437Z,42.82
2022-09-12T12:34:02.229Z,43.31
2022-09-12T12:36:40.231Z,44.52
2022-09-12T12:39:44.067Z,42.63
2022-09-12T12:42:13.927Z,43.68
2022-09-12T12:44:51.364Z,44.64
2022-09-12T12:47:21.825Z,46.03
2022-09-12T12:49:54.377Z,45.01
2022-09-12T12:52:24.295Z,45.43
2022-09-12T12:54:58.195Z,42.76
2022-09-12T12:57:30.424Z,42.77
2022-09-12T13:00:02.187Z,42.10
2022-09-12T13:02:33.530Z,41.50
2022-09-12T13:05:06.750Z,41.99
2022-09-12T13:07:38.540Z,41.61
2022-09-12T13:10:08.407Z,43.19
2022-09-12T13:12:38.663Z,42.33
2022-09-12T13:15:47.555Z,41.39
2022-09-12T13:18:19.551Z,39.83
2022-09-12T13:20:52.156Z,41.27
2022-09-12T13:23:25.730Z,41.82
2022-09-12T13:25:54.560Z,40.89
2022-09-12T13:28:22.200Z,38.59
2022-09-12T13:30:58.300Z,38.31
2022-09-12T13:33:36.881Z,39.99
2022-09-12T13:36:24.110Z,39.05
2022-09-12T13:39:03.354Z,38.82
2022-09-12T13:41:50.955Z,38.25
2022-09-12T13:44:21.595Z,38.40
2022-09-12T13:46:50.144Z,39.01
2022-09-12T13:49:23.811Z,38.55
2022-09-12T13:52:00.685Z,38.32
2022-09-12T13:54:30.716Z,37.83
2022-09-12T13:56:59.642Z,37.20
2022-09-12T13:59:27.235Z,37.38
2022-09-12T14:01:54.866Z,37.15
2022-09-12T14:04:41.789Z,36.78
2022-09-12T14:07:16.483Z,35.80
2022-09-12T14:09:53.512Z,35.72
2022-09-12T14:12:26.522Z,36.36
2022-09-12T14:14:54.364Z,36.21
2022-09-12T14:17:29.328Z,35.31
2022-09-12T14:19:59.198Z,35.62
2022-09-12T14:22:29.775Z,35.08
2022-09-12T14:24:59.747Z,35.09
2022-09-12T14:27:31.326Z,35.91
2022-09-12T14:30:03.225Z,36.96
2022-09-12T14:32:30.758Z,35.51
2022-09-12T14:35:18.906Z,34.33
2022-09-12T14:37:49.176Z,33.49
2022-09-12T14:40:20.632Z,32.36
2022-09-12T14:42:50.468Z,32.27
2022-09-12T14:45:24.476Z,31.93
2022-09-12T14:47:53.999Z,32.44
2022-09-12T14:50:24.577Z,32.04
2022-09-12T14:53:05.071Z,31.84
2022-09-12T14:55:35.666Z,31.04
2022-09-12T14:58:17.256Z,33.22
2022-09-12T15:00:55.866Z,32.51
2022-09-12T15:03:29.671Z,32.77
2022-09-12T15:05:57.590Z,32.08
2022-09-12T15:08:26.754Z,32.77
2022-09-12T15:10:56.103Z,31.72
2022-09-12T15:13:25.767Z,31.81
2022-09-12T15:15:55.649Z,32.91
2022-09-12T15:18:25.733Z,33.41
2022-09-12T15:20:56.291Z,33.13
2022-09-12T15:23:33.607Z,34.29
2022-09-12T15:26:02.908Z,33.92
2022-09-12T15:28:32.380Z,34.13
2022-09-12T15:31:06.446Z,35.66
2022-09-12T15:33:34.064Z,35.59
2022-09-12T15:36:01.531Z,35.04
2022-09-12T15:38:29.020Z,35.22
2022-09-12T15:40:57.392Z,34.32
2022-09-12T15:43:27.042Z,34.76
2022-09-12T15:45:54.575Z,35.74
2022-09-12T15:48:22.058Z,35.87
2022-09-12T15:50:49.698Z,36.12
2022-09-12T15:53:18.215Z,36.60
2022-09-12T15:55:45.763Z,36.90
2022-09-12T15:58:14.185Z,37.02
2022-09-12T16:00:42.960Z,37.44
2022-09-12T16:03:21.516Z,37.66
2022-09-12T16:05:49.229Z,38.68
2022-09-12T16:08:16.658Z,38.00
2022-09-12T16:10:45.021Z,38.13
2022-09-12T16:13:12.522Z,38.35
2022-09-12T16:15:40.049Z,38.24
2022-09-12T16:18:09.779Z,37.80
2022-09-12T16:20:40.250Z,36.79
2022-09-12T16:23:07.851Z,37.71
2022-09-12T16:25:35.314Z,37.89
2022-09-12T16:28:05.588Z,38.28
2022-09-12T16:30:33.037Z,38.37
2022-09-12T16:33:00.457Z,38.43
2022-09-12T16:35:29.331Z,37.66
2022-09-12T16:37:56.740Z,38.19
2022-09-12T16:40:24.204Z,37.69
2022-09-12T16:42:51.602Z,37.00
2022-09-12T16:45:19.024Z,36.64
2022-09-12T16:47:46.670Z,35.81
2022-09-12T16:50:14.106Z,35.55
2022-09-12T16:52:42.839Z,35.05
2022-09-12T16:55:10.916Z,34.91
2022-09-12T16:57:38.615Z,35.02
2022-09-12T17:00:07.544Z,35.12
2022-09-12T17:02:34.994Z,35.51
2022-09-12T17:05:02.603Z,35.04
2022-09-12T17:07:30.386Z,35.41
2022-09-12T17:09:59.170Z,35.15
2022-09-12T17:12:26.613Z,35.76
2022-09-12T17:14:54.292Z,36.27
2022-09-12T17:17:21.747Z,36.91
2022-09-12T17:19:49.177Z,37.81
2022-09-12T17:22:16.636Z,38.64
2022-09-12T17:24:44.046Z,39.59
2022-09-12T17:27:12.862Z,40.55
2022-09-12T17:29:41.396Z,41.54
2022-09-12T17:32:08.874Z,41.98
2022-09-12T17:34:36.329Z,43.16
2022-09-12T17:37:03.785Z,43.63
2022-09-12T17:39:31.245Z,44.11
2022-09-12T17:41:58.903Z,44.27
2022-09-12T17:44:29.644Z,45.05
2022-09-12T17:46:57.155Z,46.96
2022-09-12T17:49:25.356Z,48.08
2022-09-12T17:51:52.915Z,48.55
2022-09-12T17:54:21.681Z,48.22
2022-09-12T17:56:51.211Z,50.01
2022-09-12T17:59:21.307Z,50.29
2022-09-12T18:02:07.496Z,50.23
2022-09-12T18:04:35.054Z,50.42
2022-09-12T18:07:02.921Z,51.12
2022-09-12T18:09:31.181Z,51.93
2022-09-12T18:11:58.816Z,52.86
2022-09-12T18:14:27.624Z,53.31
2022-09-12T18:16:57.501Z,54.07
2022-09-12T18:19:26.529Z,53.77
2022-09-12T18:21:54.293Z,53.50
2022-09-12T18:24:22.341Z,53.24
2022-09-12T18:26:49.836Z,53.91
2022-09-12T18:29:19.819Z,54.40
2022-09-12T18:31:48.049Z,54.45
2022-09-12T18:34:17.725Z,54.85
2022-09-12T18:36:47.361Z,54.79
2022-09-12T18:39:15.371Z,55.67
2022-09-12T18:41:43.188Z,58.31
2022-09-12T18:44:12.351Z,59.45
2022-09-12T18:46:40.194Z,60.42
2022-09-12T18:49:09.349Z,61.16
2022-09-12T18:51:40.063Z,61.34
2022-09-12T18:54:11.510Z,60.85
2022-09-12T18:56:43.326Z,61.04
2022-09-12T18:59:12.728Z,61.23
2022-09-12T19:01:40.381Z,61.18
2022-09-12T19:04:09.772Z,61.44
2022-09-12T19:06:40.306Z,61.53
2022-09-12T19:09:09.511Z,62.43
2022-09-12T19:11:38.478Z,64.46
2022-09-12T19:14:06.549Z,64.92
2022-09-12T19:16:34.537Z,64.99
2022-09-12T19:19:02.529Z,65.02
2022-09-12T19:21:31.597Z,65.46
2022-09-12T19:24:02.892Z,65.59
2022-09-12T19:26:30.499Z,66.15
2022-09-12T19:28:58.018Z,67.30
2022-09-12T19:31:27.360Z,67.83
2022-09-12T19:33:59.716Z,67.91
2022-09-12T19:36:44.444Z,67.78
2022-09-12T19:39:14.209Z,67.73
2022-09-12T19:41:41.603Z,68.23
2022-09-12T19:44:09.164Z,68.69
2022-09-12T19:46:36.703Z,68.46
2022-09-12T19:49:04.658Z,68.70
2022-09-12T19:51:32.284Z,68.67
2022-09-12T19:53:59.755Z,70.17
2022-09-12T19:56:29.266Z,70.54
2022-09-12T19:58:57.000Z,70.54
2022-09-12T20:01:27.972Z,70.73
2022-09-12T20:03:55.696Z,70.70
2022-09-12T20:06:23.399Z,70.73
2022-09-12T20:08:50.855Z,70.99
2022-09-12T20:11:20.726Z,70.93
2022-09-12T20:13:50.022Z,71.18
2022-09-12T20:16:22.158Z,71.39
2022-09-12T20:18:54.489Z,71.43
2022-09-12T20:21:25.019Z,71.27
2022-09-12T20:23:52.457Z,71.52
2022-09-12T20:26:20.722Z,71.33
2022-09-12T20:28:49.691Z,71.47
2022-09-12T20:31:17.696Z,71.45
2022-09-12T20:33:49.830Z,71.37
2022-09-12T20:36:20.876Z,71.90
2022-09-12T20:38:49.771Z,72.05
2022-09-12T20:41:17.954Z,72.41
2022-09-12T20:43:45.415Z,72.68
2022-09-12T20:46:15.950Z,73.00
2022-09-12T20:48:46.733Z,73.20
2022-09-12T20:51:14.828Z,73.19
2022-09-12T20:53:42.252Z,73.76
2022-09-12T20:56:09.712Z,73.89
2022-09-12T20:58:40.510Z,74.19
2022-09-12T21:01:12.452Z,74.18
2022-09-12T21:03:42.586Z,74.06
2022-09-12T21:06:12.363Z,74.13
2022-09-12T21:08:40.343Z,74.33
2022-09-12T21:11:08.223Z,74.36
2022-09-12T21:13:36.098Z,74.21
2022-09-12T21:16:05.587Z,74.37
2022-09-12T21:18:33.931Z,74.83
2022-09-12T21:21:03.225Z,75.07
2022-09-12T21:23:31.127Z,74.86
2022-09-12T21:25:59.912Z,74.52
2022-09-12T21:28:27.530Z,74.64
2022-09-12T21:30:55.019Z,74.41
2022-09-12T21:33:22.928Z,74.57
2022-09-12T21:35:50.712Z,74.99
2022-09-12T21:38:20.398Z,75.39
2022-09-12T21:40:49.366Z,75.90
2022-09-12T21:43:16.856Z,76.19
2022-09-12T21:45:44.292Z,76.42
2022-09-12T21:48:11.742Z,76.34
2022-09-12T21:50:39.170Z,76.63
2022-09-12T21:53:06.633Z,76.92
2022-09-12T21:55:35.660Z,77.12
2022-09-12T21:58:03.099Z,77.37
2022-09-12T22:00:30.538Z,76.89
2022-09-12T22:02:58.932Z,77.33
2022-09-12T22:05:29.771Z,77.76
2022-09-12T22:07:57.192Z,77.13
2022-09-12T22:10:24.958Z,76.97
2022-09-12T22:12:54.071Z,76.89
2022-09-12T22:15:39.981Z,77.35
2022-09-12T22:18:08.272Z,77.22
2022-09-12T22:20:35.738Z,77.58
2022-09-12T22:23:24.543Z,77.53
2022-09-12T22:25:54.898Z,77.04
2022-09-12T22:28:24.988Z,77.20
2022-09-12T22:30:54.251Z,76.78
2022-09-12T22:33:21.932Z,76.94
2022-09-12T22:35:49.381Z,76.81
2022-09-12T22:38:16.819Z,76.71
2022-09-12T22:40:44.538Z,76.71
2022-09-12T22:43:12.514Z,77.07
2022-09-12T22:45:42.956Z,77.02
2022-09-12T22:48:10.514Z,76.66
2022-09-12T22:50:38.329Z,76.66
2022-09-12T22:53:05.774Z,76.43
2022-09-12T22:55:33.188Z,76.35
2022-09-12T22:58:00.622Z,76.17
2022-09-12T23:00:29.561Z,76.04
2022-09-12T23:02:58.436Z,75.86
2022-09-12T23:05:25.946Z,75.75
2022-09-12T23:07:54.095Z,76.05
2022-09-12T23:10:21.576Z,76.04
2022-09-12T23:12:49.690Z,75.83
2022-09-12T23:15:17.124Z,75.81
2022-09-12T23:17:44.543Z,75.43
2022-09-12T23:20:13.439Z,74.75
2022-09-12T23:22:40.841Z,74.38
2022-09-12T23:25:09.175Z,74.39
2022-09-12T23:27:36.583Z,74.44
2022-09-12T23:30:04.379Z,74.51
2022-09-12T23:32:31.785Z,74.28
2022-09-12T23:34:59.315Z,74.52
2022-09-12T23:37:28.055Z,74.28
2022-09-12T23:39:55.503Z,74.34
2022-09-12T23:42:23.312Z,74.20
2022-09-12T23:44:50.700Z,74.56
2022-09-12T23:47:18.326Z,75.05
2022-09-12T23:49:46.078Z,75.03
2022-09-12T23:52:13.519Z,75.16
2022-09-12T23:54:42.252Z,75.42
2022-09-12T23:57:09.705Z,75.45
2022-09-12T23:59:37.123Z,75.62
